Time;durP1;ratioP1;P1;durP2;ratioP2;P2;SDS_P1;SDS_P2;PMS_P1;PMS_P2;Temp;Humidity;BMP_temperature;BMP_pressure;BME280_temperature;BME280_humidity;BME280_pressure;Samples;Min_cycle;Max_cycle;Signal;HPM_P1;HPM_P2
2023/12/05 00:02:12;;;;;;;;;2.00;1.00;;;;;;;;5075279;28;45353;-70
2023/12/05 00:04:38;;;;;;;;;0.00;0.00;;;;;;;;5078739;28;45227;-70
2023/12/05 00:07:04;;;;;;;;;0.00;0.00;;;;;;;;5077264;28;45722;-69
2023/12/05 00:09:29;;;;;;;;;1.67;0.00;;;;;;;;5077564;27;45848;-70
2023/12/05 00:11:54;;;;;;;;;1.00;1.00;;;;;;;;5079182;28;45416;-70
2023/12/05 00:14:19;;;;;;;;;0.67;0.00;;;;;;;;5078985;28;45517;-69
2023/12/05 00:16:44;;;;;;;;;0.33;0.33;;;;;;;;5078414;28;45954;-69
2023/12/05 00:19:10;;;;;;;;;0.00;0.00;;;;;;;;5077523;28;45493;-71
2023/12/05 00:21:35;;;;;;;;;0.00;0.00;;;;;;;;5078107;28;45559;-69
2023/12/05 00:24:00;;;;;;;;;0.00;0.00;;;;;;;;5077372;28;45434;-69
2023/12/05 00:26:25;;;;;;;;;1.67;0.00;;;;;;;;5077852;28;46043;-69
2023/12/05 00:28:50;;;;;;;;;1.00;1.00;;;;;;;;5076437;28;45412;-71
2023/12/05 00:31:15;;;;;;;;;2.00;0.00;;;;;;;;5059134;28;45577;-70
2023/12/05 00:33:41;;;;;;;;;0.00;0.00;;;;;;;;5074264;28;45314;-69
2023/12/05 00:36:06;;;;;;;;;0.33;0.00;;;;;;;;5071727;28;46675;-71
2023/12/05 00:38:31;;;;;;;;;0.67;0.67;;;;;;;;5074438;28;45421;-68
2023/12/05 00:40:59;;;;;;;;;1.00;0.00;;;;;;;;5070446;28;45295;-69
2023/12/05 00:43:24;;;;;;;;;1.00;0.00;;;;;;;;5069910;28;45417;-69
2023/12/05 00:45:49;;;;;;;;;0.00;0.00;;;;;;;;5076783;28;46728;-69
2023/12/05 00:48:15;;;;;;;;;1.00;0.00;;;;;;;;5076814;28;45426;-70
2023/12/05 00:50:40;;;;;;;;;0.67;0.00;;;;;;;;5078139;28;45431;-71
2023/12/05 00:53:05;;;;;;;;;0.00;0.00;;;;;;;;5059405;28;45602;-69
2023/12/05 00:55:30;;;;;;;;;1.00;0.00;;;;;;;;5077558;28;46922;-70
2023/12/05 00:57:55;;;;;;;;;0.00;0.00;;;;;;;;5077576;28;45390;-70
2023/12/05 01:00:20;;;;;;;;;0.00;0.00;;;;;;;;5075793;28;45391;-72
2023/12/05 01:02:46;;;;;;;;;0.00;0.00;;;;;;;;5070120;28;45605;-70
2023/12/05 01:05:11;;;;;;;;;2.00;0.00;;;;;;;;5075573;28;46499;-70
2023/12/05 01:07:37;;;;;;;;;0.00;0.00;;;;;;;;5075677;28;45487;-71
2023/12/05 01:10:03;;;;;;;;;0.00;0.00;;;;;;;;5077744;28;46035;-70
2023/12/05 01:12:28;;;;;;;;;1.00;0.00;;;;;;;;5076966;28;45569;-68
2023/12/05 01:14:53;;;;;;;;;0.00;0.00;;;;;;;;5058626;28;47266;-69
2023/12/05 01:17:18;;;;;;;;;0.67;0.00;;;;;;;;5071793;28;45450;-69
2023/12/05 01:19:44;;;;;;;;;0.00;0.00;;;;;;;;5055357;28;45470;-70
2023/12/05 01:22:12;;;;;;;;;2.67;0.00;;;;;;;;5065517;28;45555;-69
2023/12/05 01:24:39;;;;;;;;;0.00;0.00;;;;;;;;5076252;28;45676;-69
2023/12/05 01:27:07;;;;;;;;;1.00;0.00;;;;;;;;5071361;28;45461;-70
2023/12/05 01:29:32;;;;;;;;;0.00;0.00;;;;;;;;5075132;28;45467;-72
2023/12/05 01:31:57;;;;;;;;;0.00;0.00;;;;;;;;5077022;28;45333;-69
2023/12/05 01:34:23;;;;;;;;;0.00;0.00;;;;;;;;5076332;28;46349;-69
2023/12/05 01:36:48;;;;;;;;;3.00;0.00;;;;;;;;5071904;28;45366;-69
2023/12/05 01:39:13;;;;;;;;;0.00;0.00;;;;;;;;5076893;28;45464;-70
2023/12/05 01:41:38;;;;;;;;;0.00;0.00;;;;;;;;5076964;28;45359;-70
2023/12/05 01:44:03;;;;;;;;;0.00;0.00;;;;;;;;5075892;28;46016;-69
2023/12/05 01:46:30;;;;;;;;;0.00;0.00;;;;;;;;5073086;28;45514;-72
2023/12/05 01:48:55;;;;;;;;;0.00;0.00;;;;;;;;5076676;28;45423;-69
2023/12/05 01:51:21;;;;;;;;;0.00;0.00;;;;;;;;5076472;28;45299;-70
2023/12/05 01:53:46;;;;;;;;;2.00;0.00;;;;;;;;5071873;28;46540;-69
2023/12/05 01:56:12;;;;;;;;;0.00;0.00;;;;;;;;5076267;28;45493;-69
2023/12/05 01:58:38;;;;;;;;;0.00;0.00;;;;;;;;5057866;28;45569;-69
2023/12/05 02:01:04;;;;;;;;;0.00;0.00;;;;;;;;5073246;28;45347;-71
2023/12/05 02:03:30;;;;;;;;;0.00;0.00;;;;;;;;5057249;28;47590;-71
2023/12/05 02:05:55;;;;;;;;;1.00;0.00;;;;;;;;5076658;28;45424;-70
2023/12/05 02:08:22;;;;;;;;;1.67;0.00;;;;;;;;5075430;28;45507;-71
2023/12/05 02:10:47;;;;;;;;;0.00;0.00;;;;;;;;5058170;28;45479;-70
2023/12/05 02:13:13;;;;;;;;;1.00;0.00;;;;;;;;5057533;28;47232;-69
2023/12/05 02:15:38;;;;;;;;;0.00;0.00;;;;;;;;5071029;28;45248;-70
2023/12/05 02:18:15;;;;;;;;;0.00;0.00;;;;;;;;5076395;28;45637;-70
2023/12/05 02:20:50;;;;;;;;;1.33;0.00;;;;;;;;5076384;28;45438;-72
2023/12/05 02:23:34;;;;;;;;;0.00;0.00;;;;;;;;5050165;28;47807;-70
2023/12/05 02:26:11;;;;;;;;;0.00;0.00;;;;;;;;5069592;28;45489;-69
2023/12/05 02:28:37;;;;;;;;;0.67;0.00;;;;;;;;5076396;28;45476;-69
2023/12/05 02:31:02;;;;;;;;;0.00;0.00;;;;;;;;5076368;28;45480;-70
2023/12/05 02:33:27;;;;;;;;;1.00;0.00;;;;;;;;5057642;28;47576;-71
2023/12/05 02:35:59;;;;;;;;;0.00;0.00;;;;;;;;5074007;28;45527;-69
2023/12/05 02:38:36;;;;;;;;;0.00;0.00;;;;;;;;5075581;28;45521;-70
2023/12/05 02:41:11;;;;;;;;;0.33;0.00;;;;;;;;5076053;28;45449;-70
2023/12/05 02:43:41;;;;;;;;;1.00;0.00;;;;;;;;5075457;28;46238;-72
2023/12/05 02:46:07;;;;;;;;;0.00;0.00;;;;;;;;5075654;28;45291;-69
2023/12/05 02:48:33;;;;;;;;;0.00;0.00;;;;;;;;5066432;28;45469;-70
2023/12/05 02:50:58;;;;;;;;;0.00;0.00;;;;;;;;5072528;28;45568;-69
2023/12/05 02:53:24;;;;;;;;;1.00;0.00;;;;;;;;5075761;28;45340;-69
2023/12/05 02:55:49;;;;;;;;;0.67;0.00;;;;;;;;5070161;28;45379;-71
2023/12/05 02:58:14;;;;;;;;;0.00;0.00;;;;;;;;5073597;28;45342;-70
2023/12/05 03:00:39;;;;;;;;;1.00;0.00;;;;;;;;5075553;28;45572;-69
2023/12/05 03:03:04;;;;;;;;;0.00;0.00;;;;;;;;5075794;28;46678;-69
2023/12/05 03:05:30;;;;;;;;;1.00;0.00;;;;;;;;5075472;28;45402;-69
2023/12/05 03:07:55;;;;;;;;;0.00;0.00;;;;;;;;5073141;27;45614;-70
2023/12/05 03:10:20;;;;;;;;;0.00;0.00;;;;;;;;5074293;28;45461;-70
2023/12/05 03:12:45;;;;;;;;;0.00;0.00;;;;;;;;5077178;28;47199;-69
2023/12/05 03:15:11;;;;;;;;;0.00;0.00;;;;;;;;5060729;28;45537;-68
2023/12/05 03:17:36;;;;;;;;;0.00;0.00;;;;;;;;5078421;28;45383;-70
2023/12/05 03:20:02;;;;;;;;;0.00;0.00;;;;;;;;5079381;28;45383;-69
2023/12/05 03:22:27;;;;;;;;;0.00;0.00;;;;;;;;5059118;28;47074;-69
2023/12/05 03:24:52;;;;;;;;;0.00;0.00;;;;;;;;5078973;28;45427;-69
2023/12/05 03:27:18;;;;;;;;;0.00;0.00;;;;;;;;5078866;28;45461;-69
2023/12/05 03:29:43;;;;;;;;;3.00;0.00;;;;;;;;5079087;28;45369;-69
2023/12/05 03:32:08;;;;;;;;;0.00;0.00;;;;;;;;5077155;28;45905;-69
2023/12/05 03:34:33;;;;;;;;;0.00;0.00;;;;;;;;5060534;28;45380;-69
2023/12/05 03:36:58;;;;;;;;;1.00;0.00;;;;;;;;5075945;28;45236;-70
2023/12/05 03:39:24;;;;;;;;;0.00;0.00;;;;;;;;5076046;28;45553;-70
2023/12/05 03:41:49;;;;;;;;;1.00;0.00;;;;;;;;5078631;28;46596;-69
2023/12/05 03:44:14;;;;;;;;;0.00;0.00;;;;;;;;5074499;28;45362;-69
2023/12/05 03:46:39;;;;;;;;;0.00;0.00;;;;;;;;5078633;28;45533;-69
2023/12/05 03:49:04;;;;;;;;;0.00;0.00;;;;;;;;5060335;28;45481;-70
2023/12/05 03:51:30;;;;;;;;;0.00;0.00;;;;;;;;5076807;28;46226;-70
2023/12/05 03:53:55;;;;;;;;;0.00;0.00;;;;;;;;5073395;28;45500;-70
2023/12/05 03:56:20;;;;;;;;;0.00;0.00;;;;;;;;5075177;28;45529;-69
2023/12/05 03:58:45;;;;;;;;;0.00;0.00;;;;;;;;5078536;28;45585;-69
2023/12/05 04:01:10;;;;;;;;;0.00;0.00;;;;;;;;5072247;28;45470;-69
2023/12/05 04:03:36;;;;;;;;;0.00;0.00;;;;;;;;5073474;28;45494;-70
2023/12/05 04:06:01;;;;;;;;;0.00;0.00;;;;;;;;5077429;28;45266;-69
2023/12/05 04:08:26;;;;;;;;;0.00;0.00;;;;;;;;5056974;28;45324;-70
2023/12/05 04:10:51;;;;;;;;;0.00;0.00;;;;;;;;5076127;28;45871;-69
2023/12/05 04:13:16;;;;;;;;;0.00;0.00;;;;;;;;5077338;28;45478;-69
2023/12/05 04:15:44;;;;;;;;;0.00;0.00;;;;;;;;5077953;28;45403;-69
2023/12/05 04:18:10;;;;;;;;;1.00;0.00;;;;;;;;5076593;28;45364;-70
2023/12/05 04:20:36;;;;;;;;;0.75;0.00;;;;;;;;5076870;28;45793;-69
2023/12/05 04:23:01;;;;;;;;;0.00;0.00;;;;;;;;5076730;28;45586;-71
2023/12/05 04:25:26;;;;;;;;;0.00;0.00;;;;;;;;5076736;28;45307;-70
2023/12/05 04:27:51;;;;;;;;;0.75;0.00;;;;;;;;5073040;28;45602;-70
2023/12/05 04:30:17;;;;;;;;;0.33;0.00;;;;;;;;5074989;28;46786;-70
2023/12/05 04:32:42;;;;;;;;;0.00;0.00;;;;;;;;5074335;28;45434;-70
2023/12/05 04:35:07;;;;;;;;;0.00;0.00;;;;;;;;5078333;28;45333;-69
2023/12/05 04:37:32;;;;;;;;;0.00;0.00;;;;;;;;5077629;28;45384;-69
2023/12/05 04:39:57;;;;;;;;;0.00;0.00;;;;;;;;5074396;28;46655;-69
2023/12/05 04:42:23;;;;;;;;;0.00;0.00;;;;;;;;5075555;28;45327;-70
2023/12/05 04:44:48;;;;;;;;;0.00;0.00;;;;;;;;5075476;28;45283;-69
2023/12/05 04:47:13;;;;;;;;;0.00;0.00;;;;;;;;5077967;28;45550;-70
2023/12/05 04:49:38;;;;;;;;;0.00;0.00;;;;;;;;5076523;28;46730;-70
2023/12/05 04:52:03;;;;;;;;;0.00;0.00;;;;;;;;5077538;28;45474;-69
2023/12/05 04:54:29;;;;;;;;;1.00;0.00;;;;;;;;5058263;28;45446;-69
2023/12/05 04:56:54;;;;;;;;;0.33;0.00;;;;;;;;5070191;28;45315;-69
2023/12/05 04:59:19;;;;;;;;;0.00;0.00;;;;;;;;5076685;28;46564;-70
2023/12/05 05:01:44;;;;;;;;;0.00;0.00;;;;;;;;5076195;28;45292;-69
2023/12/05 05:04:09;;;;;;;;;2.67;0.00;;;;;;;;5074918;28;45454;-69
2023/12/05 05:06:35;;;;;;;;;0.00;0.00;;;;;;;;5073427;28;45446;-69
2023/12/05 05:09:00;;;;;;;;;0.00;0.00;;;;;;;;5076350;27;46430;-70
2023/12/05 05:11:25;;;;;;;;;0.00;0.00;;;;;;;;5075623;28;45264;-69
2023/12/05 05:13:51;;;;;;;;;0.00;0.00;;;;;;;;5074248;28;45295;-69
2023/12/05 05:16:16;;;;;;;;;0.67;0.00;;;;;;;;5071161;28;45374;-70
2023/12/05 05:18:41;;;;;;;;;0.00;0.00;;;;;;;;5058479;28;47373;-70
2023/12/05 05:21:06;;;;;;;;;0.00;0.00;;;;;;;;5068461;28;45231;-70
2023/12/05 05:23:32;;;;;;;;;6.00;0.50;;;;;;;;5077257;28;45430;-68
2023/12/05 05:25:57;;;;;;;;;0.00;0.00;;;;;;;;5077017;28;45280;-68
2023/12/05 05:28:22;;;;;;;;;1.25;0.00;;;;;;;;5076956;28;46456;-70
2023/12/05 05:30:48;;;;;;;;;0.00;0.00;;;;;;;;5077064;28;45356;-70
2023/12/05 05:33:13;;;;;;;;;1.50;1.00;;;;;;;;5076994;28;45212;-69
2023/12/05 05:35:38;;;;;;;;;0.25;0.25;;;;;;;;5076448;28;45430;-69
2023/12/05 05:38:04;;;;;;;;;2.00;1.00;;;;;;;;5072841;28;46455;-69
2023/12/05 05:40:29;;;;;;;;;0.00;0.00;;;;;;;;5075450;28;45452;-71
2023/12/05 05:42:54;;;;;;;;;0.00;0.00;;;;;;;;5075435;28;46777;-69
2023/12/05 05:45:19;;;;;;;;;1.33;0.00;;;;;;;;5057744;28;45634;-70
2023/12/05 05:47:44;;;;;;;;;0.00;0.00;;;;;;;;5075338;28;46355;-70
2023/12/05 05:50:11;;;;;;;;;1.00;0.00;;;;;;;;5076756;28;45456;-70
2023/12/05 05:52:36;;;;;;;;;0.00;0.00;;;;;;;;5074601;28;45357;-69
2023/12/05 05:55:02;;;;;;;;;0.00;0.00;;;;;;;;5076095;28;45648;-69
2023/12/05 05:57:28;;;;;;;;;0.00;0.00;;;;;;;;5073956;28;47047;-69
2023/12/05 05:59:53;;;;;;;;;0.00;0.00;;;;;;;;5172512;22;46388;-70
2023/12/05 06:02:18;;;;;;;;;0.00;0.00;;;;;;;;5056037;28;45466;-69
2023/12/05 06:04:43;;;;;;;;;1.33;0.00;;;;;;;;5056670;28;45536;-70
2023/12/05 06:07:09;;;;;;;;;1.00;0.00;;;;;;;;5054747;28;46624;-69
2023/12/05 06:09:34;;;;;;;;;0.00;0.00;;;;;;;;5055918;28;45385;-70
2023/12/05 06:11:59;;;;;;;;;0.00;0.00;;;;;;;;5054710;28;45264;-70
2023/12/05 06:14:24;;;;;;;;;1.50;0.00;;;;;;;;5049199;28;45517;-71
2023/12/05 06:16:50;;;;;;;;;0.00;0.00;;;;;;;;5054656;28;45382;-70
2023/12/05 06:19:16;;;;;;;;;1.00;0.00;;;;;;;;5053126;28;45457;-71
2023/12/05 06:21:41;;;;;;;;;1.00;1.00;;;;;;;;5049215;28;45450;-70
2023/12/05 06:24:08;;;;;;;;;0.00;0.00;;;;;;;;5055999;28;47216;-71
2023/12/05 06:26:33;;;;;;;;;0.00;0.00;;;;;;;;5054367;28;46355;-72
2023/12/05 06:28:58;;;;;;;;;0.00;0.00;;;;;;;;5055707;28;45268;-69
2023/12/05 06:31:23;;;;;;;;;1.33;0.00;;;;;;;;5053387;28;45494;-69
2023/12/05 06:33:49;;;;;;;;;1.00;0.00;;;;;;;;5050268;28;45208;-70
2023/12/05 06:36:16;;;;;;;;;0.00;0.00;;;;;;;;5053016;28;47684;-70
2023/12/05 06:38:41;;;;;;;;;0.00;0.00;;;;;;;;5054891;28;45447;-70
2023/12/05 06:41:07;;;;;;;;;0.33;0.33;;;;;;;;5041330;28;45608;-69
2023/12/05 06:43:32;;;;;;;;;1.00;1.00;;;;;;;;5048180;28;45590;-70
2023/12/05 06:45:57;;;;;;;;;0.33;0.00;;;;;;;;5051211;28;46740;-72
2023/12/05 06:48:23;;;;;;;;;0.33;0.33;;;;;;;;5039779;28;45818;-71
2023/12/05 06:50:48;;;;;;;;;0.67;0.00;;;;;;;;5049975;28;45300;-72
2023/12/05 06:53:13;;;;;;;;;0.00;0.00;;;;;;;;5037772;28;45322;-69
2023/12/05 06:55:39;;;;;;;;;3.00;0.00;;;;;;;;5029799;28;47625;-69
2023/12/05 06:58:04;;;;;;;;;2.00;1.00;;;;;;;;5043309;28;45445;-68
2023/12/05 07:00:29;;;;;;;;;0.00;0.00;;;;;;;;5045075;28;45478;-69
2023/12/05 07:02:54;;;;;;;;;0.00;0.00;;;;;;;;5046202;28;45446;-69
2023/12/05 07:05:20;;;;;;;;;0.00;0.00;;;;;;;;5045954;28;46389;-69
2023/12/05 07:07:45;;;;;;;;;0.00;0.00;;;;;;;;5047225;28;45492;-69
2023/12/05 07:10:10;;;;;;;;;0.00;0.00;;;;;;;;5033773;28;45366;-68
2023/12/05 07:12:35;;;;;;;;;0.00;0.00;;;;;;;;5046604;28;45407;-69
2023/12/05 07:15:00;;;;;;;;;0.00;0.00;;;;;;;;5048994;28;46449;-71
2023/12/05 07:17:26;;;;;;;;;0.33;0.33;;;;;;;;5047095;28;45411;-70
2023/12/05 07:19:51;;;;;;;;;0.00;0.00;;;;;;;;5044141;28;45548;-70
2023/12/05 07:22:16;;;;;;;;;2.00;0.00;;;;;;;;5029145;28;45350;-71
2023/12/05 07:24:41;;;;;;;;;1.33;0.00;;;;;;;;5056384;28;46507;-69
2023/12/05 07:27:06;;;;;;;;;0.00;0.00;;;;;;;;5058818;28;45380;-73
2023/12/05 07:29:31;;;;;;;;;2.00;0.00;;;;;;;;5050912;28;45471;-72
2023/12/05 07:31:57;;;;;;;;;1.00;0.00;;;;;;;;5056838;28;45363;-72
2023/12/05 07:34:22;;;;;;;;;0.00;0.00;;;;;;;;5054519;28;45693;-73
2023/12/05 07:36:47;;;;;;;;;0.00;0.00;;;;;;;;5051569;28;45635;-73
2023/12/05 07:39:13;;;;;;;;;0.00;0.00;;;;;;;;5049777;28;45461;-74
2023/12/05 07:41:39;;;;;;;;;1.00;1.00;;;;;;;;5048219;28;45654;-74
2023/12/05 07:44:05;;;;;;;;;1.00;1.00;;;;;;;;5031645;28;47534;-74
2023/12/05 07:46:30;;;;;;;;;3.00;1.00;;;;;;;;5057698;28;45431;-75
2023/12/05 07:48:56;;;;;;;;;2.33;2.33;;;;;;;;5054028;28;45376;-74
2023/12/05 07:51:21;;;;;;;;;2.00;1.00;;;;;;;;5055794;28;45562;-74
2023/12/05 07:53:48;;;;;;;;;2.00;2.00;;;;;;;;5047990;28;45772;-74
2023/12/05 07:56:13;;;;;;;;;2.00;1.00;;;;;;;;5054130;28;46119;-74
2023/12/05 07:58:38;;;;;;;;;3.00;2.00;;;;;;;;5053521;28;45462;-73
2023/12/05 08:01:03;;;;;;;;;2.00;1.75;;;;;;;;5040091;28;45561;-74
2023/12/05 08:03:30;;;;;;;;;3.75;2.25;;;;;;;;5038754;28;47256;-73
2023/12/05 08:05:55;;;;;;;;;1.75;1.75;;;;;;;;5055689;28;45509;-72
2023/12/05 08:08:20;;;;;;;;;2.00;2.00;;;;;;;;5053763;28;45467;-74
2023/12/05 08:10:47;;;;;;;;;3.00;2.00;;;;;;;;5054471;28;45493;-73
2023/12/05 08:13:12;;;;;;;;;1.00;1.00;;;;;;;;5055763;28;46770;-73
2023/12/05 08:15:37;;;;;;;;;0.00;0.00;;;;;;;;5037915;28;45769;-69
2023/12/05 08:18:03;;;;;;;;;2.00;1.00;;;;;;;;5055701;28;45611;-69
2023/12/05 08:20:28;;;;;;;;;1.00;1.00;;;;;;;;5045315;28;45628;-69
2023/12/05 08:22:53;;;;;;;;;0.00;0.00;;;;;;;;5052601;28;45676;-71
2023/12/05 08:25:18;;;;;;;;;1.00;1.00;;;;;;;;5053101;28;45401;-71
2023/12/05 08:27:44;;;;;;;;;0.67;0.67;;;;;;;;5057078;28;45541;-68
2023/12/05 08:30:09;;;;;;;;;2.33;1.67;;;;;;;;5054440;28;45543;-68
2023/12/05 08:32:34;;;;;;;;;1.33;1.00;;;;;;;;5055258;28;45542;-68
2023/12/05 08:34:59;;;;;;;;;3.25;1.00;;;;;;;;5055674;28;45641;-72
2023/12/05 08:37:25;;;;;;;;;1.00;1.00;;;;;;;;5036719;28;45447;-69
2023/12/05 08:39:50;;;;;;;;;0.00;0.00;;;;;;;;5056276;28;45718;-68
2023/12/05 08:42:15;;;;;;;;;1.00;1.00;;;;;;;;5055022;28;46170;-68
2023/12/05 08:44:42;;;;;;;;;4.33;1.00;;;;;;;;5055362;28;45471;-67
2023/12/05 08:47:07;;;;;;;;;1.25;1.00;;;;;;;;5048460;28;45414;-68
2023/12/05 08:49:32;;;;;;;;;2.50;1.25;;;;;;;;5054304;28;45515;-68
2023/12/05 08:51:58;;;;;;;;;2.33;1.00;;;;;;;;5056780;28;45449;-68
2023/12/05 08:54:23;;;;;;;;;1.00;1.00;;;;;;;;5056671;28;45434;-70
2023/12/05 08:56:48;;;;;;;;;1.00;1.00;;;;;;;;5059155;28;45551;-70
2023/12/05 08:59:14;;;;;;;;;1.00;1.00;;;;;;;;5057552;28;45428;-68
2023/12/05 09:01:39;;;;;;;;;2.00;1.00;;;;;;;;5054234;28;46852;-68
2023/12/05 09:04:04;;;;;;;;;2.00;0.33;;;;;;;;5053879;28;45506;-68
2023/12/05 09:06:29;;;;;;;;;1.00;1.00;;;;;;;;5057761;28;45647;-68
2023/12/05 09:08:55;;;;;;;;;1.00;0.00;;;;;;;;5038692;28;45456;-68
2023/12/05 09:11:20;;;;;;;;;0.00;0.00;;;;;;;;5060234;28;46484;-71
2023/12/05 09:13:46;;;;;;;;;1.00;1.00;;;;;;;;5061010;28;45419;-69
2023/12/05 09:16:11;;;;;;;;;2.67;1.00;;;;;;;;5054859;28;45477;-71
2023/12/05 09:18:36;;;;;;;;;0.00;0.00;;;;;;;;5060994;28;45415;-68
2023/12/05 09:21:02;;;;;;;;;0.00;0.00;;;;;;;;5055880;28;45620;-69
2023/12/05 09:23:27;;;;;;;;;1.00;1.00;;;;;;;;5053255;28;45526;-69
2023/12/05 09:25:53;;;;;;;;;2.00;1.00;;;;;;;;5058528;28;45425;-69
2023/12/05 09:28:18;;;;;;;;;1.67;1.00;;;;;;;;5050830;28;45405;-68
2023/12/05 09:30:43;;;;;;;;;0.00;0.00;;;;;;;;5052802;28;45673;-68
2023/12/05 09:33:08;;;;;;;;;0.33;0.33;;;;;;;;5052418;28;45421;-68
2023/12/05 09:35:33;;;;;;;;;0.00;0.00;;;;;;;;5065710;28;45609;-68
2023/12/05 09:37:59;;;;;;;;;0.75;0.00;;;;;;;;5055015;28;45514;-69
2023/12/05 09:40:24;;;;;;;;;1.33;0.33;;;;;;;;5057523;28;46483;-70
2023/12/05 09:42:51;;;;;;;;;1.67;1.00;;;;;;;;5049637;28;45396;-68
2023/12/05 09:45:17;;;;;;;;;1.00;1.00;;;;;;;;5056936;28;45664;-68
2023/12/05 09:47:45;;;;;;;;;1.00;1.00;;;;;;;;5051846;28;45396;-68
2023/12/05 09:50:10;;;;;;;;;1.00;1.00;;;;;;;;5053223;28;45969;-68
2023/12/05 09:52:36;;;;;;;;;0.00;0.00;;;;;;;;5045524;28;45547;-67
2023/12/05 09:55:01;;;;;;;;;1.00;1.00;;;;;;;;5050528;28;45433;-69
2023/12/05 09:57:27;;;;;;;;;1.00;1.00;;;;;;;;5049221;28;45513;-71
2023/12/05 09:59:52;;;;;;;;;1.00;1.00;;;;;;;;5045618;28;46472;-68
2023/12/05 10:02:19;;;;;;;;;1.00;1.00;;;;;;;;5075128;28;45339;-68
2023/12/05 10:04:45;;;;;;;;;1.00;1.00;;;;;;;;5075553;28;45438;-68
2023/12/05 10:07:13;;;;;;;;;1.00;1.00;;;;;;;;5075906;28;45458;-69
2023/12/05 10:09:40;;;;;;;;;0.00;0.00;;;;;;;;5074753;27;47428;-69
2023/12/05 10:12:06;;;;;;;;;1.00;1.00;;;;;;;;5076017;28;45542;-68
2023/12/05 10:14:31;;;;;;;;;4.00;1.00;;;;;;;;5075369;28;45417;-69
2023/12/05 10:16:57;;;;;;;;;2.00;2.00;;;;;;;;5072478;28;45494;-69
2023/12/05 10:19:23;;;;;;;;;1.00;1.00;;;;;;;;5073555;28;45881;-68
2023/12/05 10:21:49;;;;;;;;;1.00;1.00;;;;;;;;5074548;28;45454;-67
2023/12/05 10:24:16;;;;;;;;;1.00;1.00;;;;;;;;5076226;28;45560;-67
2023/12/05 10:26:48;;;;;;;;;1.67;1.67;;;;;;;;5075331;28;45509;-68
2023/12/05 10:29:16;;;;;;;;;3.00;1.00;;;;;;;;5055570;28;47492;-68
2023/12/05 10:31:41;;;;;;;;;1.00;1.00;;;;;;;;5071421;28;46449;-69
2023/12/05 10:34:07;;;;;;;;;0.00;0.00;;;;;;;;5068953;28;45515;-67
2023/12/05 10:36:32;;;;;;;;;3.00;1.00;;;;;;;;5067256;28;45612;-68
2023/12/05 10:38:57;;;;;;;;;2.00;1.33;;;;;;;;5078059;28;46507;-68
2023/12/05 10:41:23;;;;;;;;;0.00;0.00;;;;;;;;5079194;28;45285;-67
2023/12/05 10:43:49;;;;;;;;;0.67;0.67;;;;;;;;5078512;28;45465;-68
2023/12/05 10:46:14;;;;;;;;;0.00;0.00;;;;;;;;5050887;28;45524;-68
2023/12/05 10:48:39;;;;;;;;;1.00;1.00;;;;;;;;5074618;28;45932;-68
2023/12/05 10:51:05;;;;;;;;;0.33;0.33;;;;;;;;5078341;28;45350;-67
2023/12/05 10:53:34;;;;;;;;;2.00;2.00;;;;;;;;5079312;28;45406;-69
2023/12/05 10:56:09;;;;;;;;;1.00;1.00;;;;;;;;5079003;28;45477;-69
2023/12/05 10:58:35;;;;;;;;;1.00;1.00;;;;;;;;5078895;28;47642;-68
2023/12/05 11:01:01;;;;;;;;;4.00;1.00;;;;;;;;5065630;28;45321;-69
2023/12/05 11:03:26;;;;;;;;;1.00;1.00;;;;;;;;5051153;28;45364;-68
2023/12/05 11:05:52;;;;;;;;;1.00;1.00;;;;;;;;5052781;28;45483;-70
2023/12/05 11:08:17;;;;;;;;;3.00;1.00;;;;;;;;5063584;28;46600;-69
2023/12/05 11:10:42;;;;;;;;;2.00;2.00;;;;;;;;5065626;28;45580;-69
2023/12/05 11:13:10;;;;;;;;;0.67;0.67;;;;;;;;5067148;28;45446;-71
2023/12/05 11:15:36;;;;;;;;;1.00;1.00;;;;;;;;5066025;28;45413;-68
2023/12/05 11:18:11;;;;;;;;;2.00;2.00;;;;;;;;5058357;28;46933;-67
2023/12/05 11:20:43;;;;;;;;;2.00;2.00;;;;;;;;5063945;28;45499;-69
2023/12/05 11:23:19;;;;;;;;;3.00;2.00;;;;;;;;5054914;28;45331;-70
2023/12/05 11:25:47;;;;;;;;;5.00;2.25;;;;;;;;5033564;28;45588;-71
2023/12/05 11:28:24;;;;;;;;;0.67;0.67;;;;;;;;5052159;28;46783;-70
2023/12/05 11:30:49;;;;;;;;;3.67;2.67;;;;;;;;5054070;28;45480;-69
2023/12/05 11:33:38;;;;;;;;;3.50;2.00;;;;;;;;5052183;28;45399;-69
2023/12/05 11:36:27;;;;;;;;;2.00;2.00;;;;;;;;5041052;28;45524;-68
2023/12/05 11:38:53;;;;;;;;;1.00;1.00;;;;;;;;5034166;28;46271;-70
2023/12/05 11:41:19;;;;;;;;;3.33;3.00;;;;;;;;5059879;28;45784;-71
2023/12/05 11:44:03;;;;;;;;;1.33;1.33;;;;;;;;5061523;28;45558;-71
2023/12/05 11:46:32;;;;;;;;;3.00;2.00;;;;;;;;5048480;28;45720;-71
2023/12/05 11:48:58;;;;;;;;;5.33;2.00;;;;;;;;5052067;28;46417;-69
2023/12/05 11:51:23;;;;;;;;;4.33;2.00;;;;;;;;5054041;28;45430;-72
2023/12/05 11:53:49;;;;;;;;;2.67;2.67;;;;;;;;5057220;28;45569;-69
2023/12/05 11:56:18;;;;;;;;;3.00;3.00;;;;;;;;5052871;28;45432;-69
2023/12/05 11:58:43;;;;;;;;;5.33;4.00;;;;;;;;5050181;28;46818;-69
2023/12/05 12:01:09;;;;;;;;;6.33;3.00;;;;;;;;5062370;28;46499;-70
2023/12/05 12:03:46;;;;;;;;;3.00;3.00;;;;;;;;5071740;28;45435;-71
2023/12/05 12:06:12;;;;;;;;;2.67;2.00;;;;;;;;5072831;28;45845;-73
2023/12/05 12:08:37;;;;;;;;;2.33;2.33;;;;;;;;5074633;27;45828;-71
2023/12/05 12:11:02;;;;;;;;;6.00;4.00;;;;;;;;5074953;28;45477;-69
2023/12/05 12:13:28;;;;;;;;;3.00;3.00;;;;;;;;5057697;28;45472;-70
2023/12/05 12:15:53;;;;;;;;;2.00;2.00;;;;;;;;5072169;28;45493;-71
2023/12/05 12:18:25;;;;;;;;;2.33;2.33;;;;;;;;5066643;28;46262;-71
2023/12/05 12:20:51;;;;;;;;;2.00;1.33;;;;;;;;5071419;28;45636;-68
2023/12/05 12:23:17;;;;;;;;;1.33;0.00;;;;;;;;5065392;28;45547;-72
2023/12/05 12:25:50;;;;;;;;;6.00;3.00;;;;;;;;5052451;28;45497;-70
2023/12/05 12:28:25;;;;;;;;;3.33;2.67;;;;;;;;5071895;28;46848;-69
2023/12/05 12:30:51;;;;;;;;;7.00;3.00;;;;;;;;5066414;28;45505;-70
2023/12/05 12:33:16;;;;;;;;;1.00;1.00;;;;;;;;5061022;28;45502;-70
2023/12/05 12:35:41;;;;;;;;;1.00;1.00;;;;;;;;5072103;28;46322;-72
2023/12/05 12:38:06;;;;;;;;;2.00;2.00;;;;;;;;5066601;28;46064;-73
2023/12/05 12:40:33;;;;;;;;;2.67;2.67;;;;;;;;5065839;28;45446;-72
2023/12/05 12:42:58;;;;;;;;;0.33;0.33;;;;;;;;5066528;28;45473;-69
2023/12/05 12:45:25;;;;;;;;;2.00;1.00;;;;;;;;5074108;28;45580;-70
2023/12/05 12:47:51;;;;;;;;;4.00;2.67;;;;;;;;5074499;28;46640;-68
2023/12/05 12:50:16;;;;;;;;;2.00;2.00;;;;;;;;5068368;28;45578;-68
2023/12/05 12:52:42;;;;;;;;;1.00;1.00;;;;;;;;5075640;28;45405;-68
2023/12/05 12:55:07;;;;;;;;;3.00;2.00;;;;;;;;5052541;28;45493;-69
2023/12/05 12:57:33;;;;;;;;;3.00;0.33;;;;;;;;5068998;28;46384;-68
2023/12/05 13:00:00;;;;;;;;;2.00;2.00;;;;;;;;5067180;28;45549;-68
2023/12/05 13:02:25;;;;;;;;;3.50;2.25;;;;;;;;5051187;28;45385;-68
2023/12/05 13:04:53;;;;;;;;;2.00;2.00;;;;;;;;5041335;28;45696;-68
2023/12/05 13:07:19;;;;;;;;;3.67;2.00;;;;;;;;5052232;28;46585;-69
2023/12/05 13:09:44;;;;;;;;;3.00;2.00;;;;;;;;5029400;28;45482;-68
2023/12/05 13:12:10;;;;;;;;;3.00;2.00;;;;;;;;5053738;28;45474;-70
2023/12/05 13:14:36;;;;;;;;;2.00;2.00;;;;;;;;5054793;28;45435;-68
2023/12/05 13:17:05;;;;;;;;;4.00;1.00;;;;;;;;5053397;28;46023;-68
2023/12/05 13:19:32;;;;;;;;;2.67;1.67;;;;;;;;5053959;28;45438;-68
2023/12/05 13:21:57;;;;;;;;;3.00;1.33;;;;;;;;5049211;28;45541;-68
2023/12/05 13:24:22;;;;;;;;;1.00;1.00;;;;;;;;5041682;28;45619;-68
2023/12/05 13:26:48;;;;;;;;;3.00;1.00;;;;;;;;5048944;28;46046;-68
2023/12/05 13:29:13;;;;;;;;;3.00;1.00;;;;;;;;5030652;28;45867;-69
2023/12/05 13:31:38;;;;;;;;;1.00;1.00;;;;;;;;5049703;28;45426;-71
2023/12/05 13:34:04;;;;;;;;;1.00;1.00;;;;;;;;5053094;28;45633;-67
2023/12/05 13:36:29;;;;;;;;;2.00;0.00;;;;;;;;5054791;28;46337;-68
2023/12/05 13:38:55;;;;;;;;;2.00;2.00;;;;;;;;5033895;28;46025;-70
2023/12/05 13:41:20;;;;;;;;;4.33;1.00;;;;;;;;5050219;28;45505;-69
2023/12/05 13:43:46;;;;;;;;;1.00;1.00;;;;;;;;5034407;28;45669;-70
2023/12/05 13:46:14;;;;;;;;;3.00;1.67;;;;;;;;5050626;28;45805;-69
2023/12/05 13:48:39;;;;;;;;;2.00;1.00;;;;;;;;5031277;28;46554;-69
2023/12/05 13:51:07;;;;;;;;;1.67;1.67;;;;;;;;5054998;28;45435;-70
2023/12/05 13:53:32;;;;;;;;;2.33;0.00;;;;;;;;5054513;28;45605;-68
2023/12/05 13:55:57;;;;;;;;;3.00;1.00;;;;;;;;5053633;28;46627;-68
2023/12/05 13:58:23;;;;;;;;;3.00;1.67;;;;;;;;5048317;28;45536;-67
2023/12/05 14:00:48;;;;;;;;;1.00;1.00;;;;;;;;5060546;28;45447;-68
2023/12/05 14:03:13;;;;;;;;;1.00;1.00;;;;;;;;5052860;28;45739;-71
2023/12/05 14:05:40;;;;;;;;;7.00;1.00;;;;;;;;5054523;28;46800;-69
2023/12/05 14:08:06;;;;;;;;;0.33;0.33;;;;;;;;5055830;28;45523;-69
2023/12/05 14:10:31;;;;;;;;;0.00;0.00;;;;;;;;5063215;28;45449;-69
2023/12/05 14:12:56;;;;;;;;;2.00;0.33;;;;;;;;5056568;28;45385;-68
2023/12/05 14:15:21;;;;;;;;;2.00;1.00;;;;;;;;5054636;28;45796;-68
2023/12/05 14:17:46;;;;;;;;;1.00;1.00;;;;;;;;5058014;28;45547;-68
2023/12/05 14:20:12;;;;;;;;;4.00;1.00;;;;;;;;5050429;28;45431;-68
2023/12/05 14:22:37;;;;;;;;;1.00;1.00;;;;;;;;5053166;28;45553;-69
2023/12/05 14:25:03;;;;;;;;;1.00;1.00;;;;;;;;5052570;28;45915;-68
2023/12/05 14:27:28;;;;;;;;;2.00;0.33;;;;;;;;5054142;28;45265;-69
2023/12/05 14:29:53;;;;;;;;;3.00;0.67;;;;;;;;5052073;28;45593;-66
2023/12/05 14:32:18;;;;;;;;;0.00;0.00;;;;;;;;5048848;28;45419;-68
2023/12/05 14:34:43;;;;;;;;;2.00;2.00;;;;;;;;5055362;28;45735;-68
2023/12/05 14:37:09;;;;;;;;;1.00;1.00;;;;;;;;5055153;28;45374;-66